FMEEFIMR

Guest
Details From FMEE - St Denis Gillot
To FIMR - PLAINE CORAIL
Flight Number -
Tags generated
Created
Modified
Stats Distance 448 nm / 829 km
Max Altitude 35,000 ft / 10,668 m
Waypoints 5
Social Downloads 3
Likes 0
Share VATSIM

Download

Looking for another format? Having issues loading an existing format? Contact us
Advertisement - Login to hide

Notes

Basic altitude profile: - Ascent Rate: 2500ft/min - Ascent Speed: 250kts - Cruise Altitude: 10000ft - Cruise Speed: 280kts - Descent Rate: 1500ft/min - Descent Speed: 200kts Options: - Use NATs: yes - Use PACOTS: yes - Use low airways: yes - Use high airways: yes

Route

FMEE SOBAT A401F PLS G200 IXABI FIMR

ID Type Via Altitude Latitude Longitude Leg Dist Tot Dist Heading (true) Name
O FMEE APT - 0 ft / 0 m -20.88931˚ 55.51775˚ - 0 nm - St Denis Gillot
SOBAT FIX - 15,400 ft / 4,694 m -20.72469˚ 56.26711˚ 43 nm 43 nm 77° / 77° -
PLS VOR A401F (AWY-LO) 35,000 ft / 10,668 m -20.42003˚ 57.66233˚ 80 nm 123 nm 77° / 77° PLAISANCE VOR-DME
IXABI FIX G200 (AWY-HI) 35,000 ft / 10,668 m -20.13417˚ 60.31028˚ 150 nm 273 nm 84° / 83° -
O FIMR APT - 0 ft / 0 m -19.75766˚ 63.36098˚ 173 nm 447 nm 83° / 82° PLAINE CORAIL

Altitude Profile

Advertisement - Login to hide

Weather


0- 5 10 15 20 25 30 35+ Temperature / ° C

Clouds and Precipitation
Forecast for 2017-12-11 06:00 UTC. Updated 25 minutes ago

Ground ~20,000 ft ~40,000 ft Winds

FMEE

Details ICAO FMEE (RUN)
Name St Denis Gillot
Region Comoros, Mayotte, Réunion and Madagascar
Timezone Indian/Reunion (UTC+4.0)
Stats Elevation 66 ft / 20 m (AMSL)
Location -20.889313° 55.517752°
Runways 2
Magnetic Variation 18.981° W

METAR

FMEE 110530Z 07004KT 9999 FEW033 SCT250 29/20 Q1014 NOSIG

Decode

TAF

TAF FMEE 102300Z 1100/1206 15010KT 9999 FEW030 TEMPO 1100/1104 SHRA BECMG 1104/1106 06012KT BECMG 1115/1117 15008KT BECMG 1204/1206 06010KT

Decode

Departure Runways

ID Width Length Bearing (true) Bearing (mag) Surface Threshold Offset Overrun Length
12 148 ft / 45 m 10,581 ft / 3,225 m 102.26° 121.24° Asphalt 397 ft / 121 m 148 ft / 45 m
14 148 ft / 45 m 8,842 ft / 2,695 m 116.55° 135.53° Asphalt 338 ft / 103 m 98 ft / 30 m
30 148 ft / 45 m 10,581 ft / 3,225 m 282.25° 301.23° Asphalt 0 ft / 0 m 0 ft / 0 m
32 148 ft / 45 m 8,842 ft / 2,695 m 296.54° 315.52° Asphalt 1,175 ft / 358 m 377 ft / 115 m

FIMR

Details ICAO FIMR (RRG)
Name PLAINE CORAIL
Region Mauritius
Timezone Indian/Mauritius (UTC+4.0)
Stats Elevation 95 ft / 29 m (AMSL)
Location -19.757658° 63.360982°
Runways 1
Magnetic Variation 17.142° W

METAR

Not found

TAF

TAF FIMR 102335Z 1100/1118 09013G23KT 9999 FEW020 BECMG 1109/1111 09017G28KT 9999 SCT016

Decode

Destination Runways

ID Width Length Bearing (true) Bearing (mag) Surface Threshold Offset Overrun Length
12 98 ft / 30 m 4,222 ft / 1,287 m 105.95° 123.09° Asphalt 440 ft / 134 m 98 ft / 30 m
30 98 ft / 30 m 4,222 ft / 1,287 m 285.94° 303.08° Asphalt 240 ft / 73 m 98 ft / 30 m

Popular Alternatives